Time;durP1;ratioP1;P1;durP2;ratioP2;P2;SDS_P1;SDS_P2;PMS_P1;PMS_P2;Temp;Humidity;BMP_temperature;BMP_pressure;BME280_temperature;BME280_humidity;BME280_pressure;Samples;Min_cycle;Max_cycle;Signal;HPM_P1;HPM_P2
2022/10/27 00:00:37;;;;;;;32.83;14.93;;;17.20;88.60;;;;;;4999654;28;20214;-66
2022/10/27 00:03:05;;;;;;;30.53;14.80;;;17.20;88.80;;;;;;5005708;28;20260;-67
2022/10/27 00:05:33;;;;;;;30.13;14.23;;;17.20;89.10;;;;;;5001412;28;20249;-66
2022/10/27 00:08:00;;;;;;;23.73;14.53;;;17.20;89.30;;;;;;4999949;28;20260;-66
2022/10/27 00:10:27;;;;;;;32.97;15.70;;;17.10;89.20;;;;;;5002942;28;20206;-66
2022/10/27 00:12:54;;;;;;;29.90;14.57;;;17.10;89.10;;;;;;5003173;28;20266;-66
2022/10/27 00:15:21;;;;;;;24.43;13.30;;;17.10;89.20;;;;;;5001912;28;20266;-66
2022/10/27 00:17:48;;;;;;;28.60;15.17;;;17.10;89.20;;;;;;5001178;28;20206;-66
2022/10/27 00:20:16;;;;;;;37.40;14.83;;;17.10;89.30;;;;;;5001402;28;20279;-66
2022/10/27 00:22:43;;;;;;;22.30;13.67;;;17.10;89.40;;;;;;5000286;28;20530;-66
2022/10/27 00:25:09;;;;;;;28.70;15.00;;;17.00;89.30;;;;;;5000108;28;20252;-66
2022/10/27 00:27:36;;;;;;;30.47;14.47;;;17.00;89.20;;;;;;4999852;28;20275;-66
2022/10/27 00:30:04;;;;;;;23.47;14.63;;;17.00;89.40;;;;;;5002355;28;20213;-66
2022/10/27 00:32:31;;;;;;;28.30;14.63;;;17.00;89.50;;;;;;5004044;28;20228;-66
2022/10/27 00:34:58;;;;;;;24.90;14.60;;;17.00;89.40;;;;;;5000999;28;20203;-66
2022/10/27 00:37:26;;;;;;;25.43;14.00;;;17.00;89.40;;;;;;4997636;28;20262;-66
2022/10/27 00:39:53;;;;;;;28.93;14.30;;;17.00;89.40;;;;;;5002447;28;20601;-66
2022/10/27 00:42:20;;;;;;;25.37;14.03;;;17.00;89.60;;;;;;5002088;28;20205;-67
2022/10/27 00:44:48;;;;;;;27.30;13.53;;;17.00;89.80;;;;;;4999036;28;20193;-67
2022/10/27 00:47:27;;;;;;;21.63;13.07;;;17.00;89.80;;;;;;5002970;28;20200;-66
2022/10/27 00:50:12;;;;;;;31.57;14.20;;;17.00;89.90;;;;;;5004493;28;20197;-67
2022/10/27 00:52:50;;;;;;;28.13;14.83;;;17.00;89.90;;;;;;5001657;28;20247;-66
2022/10/27 00:55:26;;;;;;;23.27;13.37;;;17.00;89.90;;;;;;5000030;28;20272;-66
2022/10/27 00:57:56;;;;;;;27.47;13.93;;;17.00;90.00;;;;;;5036738;28;20207;-66
2022/10/27 01:00:24;;;;;;;27.17;14.43;;;17.00;90.00;;;;;;5003580;28;20228;-66
2022/10/27 01:02:51;;;;;;;18.93;13.43;;;16.90;89.90;;;;;;5009042;28;20252;-66
2022/10/27 01:05:22;;;;;;;22.53;13.23;;;16.90;89.90;;;;;;5010467;28;20649;-66
2022/10/27 01:07:54;;;;;;;24.20;13.77;;;17.00;89.90;;;;;;5004143;28;20200;-66
2022/10/27 01:10:22;;;;;;;25.87;14.43;;;17.00;89.80;;;;;;5009015;28;20223;-66
2022/10/27 01:12:49;;;;;;;20.67;12.77;;;16.90;89.70;;;;;;5008217;28;20223;-67
2022/10/27 01:15:17;;;;;;;21.97;13.67;;;16.90;89.70;;;;;;5005547;28;20629;-66
2022/10/27 01:18:02;;;;;;;22.70;13.77;;;16.90;89.60;;;;;;5009737;28;20199;-66
2022/10/27 01:20:43;;;;;;;28.60;15.07;;;16.80;89.60;;;;;;5006851;28;20248;-67
2022/10/27 01:23:52;;;;;;;31.50;13.63;;;16.80;89.60;;;;;;5003388;28;20251;-67
2022/10/27 01:26:44;;;;;;;31.87;13.63;;;16.80;89.80;;;;;;5000625;28;20229;-67
2022/10/27 01:29:38;;;;;;;27.43;12.23;;;16.80;89.90;;;;;;5005513;28;20690;-67
2022/10/27 01:32:45;;;;;;;26.97;14.30;;;16.80;90.00;;;;;;5005701;28;20580;-67
2022/10/27 01:35:37;;;;;;;23.27;13.47;;;16.80;90.00;;;;;;5006827;28;20208;-66
2022/10/27 01:38:26;;;;;;;23.97;12.27;;;16.80;90.10;;;;;;5004716;28;20208;-67
2022/10/27 01:41:05;;;;;;;22.83;13.53;;;16.90;90.10;;;;;;5007483;28;20669;-67
2022/10/27 01:43:34;;;;;;;27.00;14.70;;;16.90;90.00;;;;;;5001086;28;20288;-67
2022/10/27 01:46:04;;;;;;;27.93;16.47;;;16.80;90.00;;;;;;5003895;28;20198;-67
2022/10/27 01:48:36;;;;;;;34.47;15.33;;;16.80;89.90;;;;;;5008038;28;20193;-67
2022/10/27 01:51:05;;;;;;;29.90;14.77;;;16.80;90.00;;;;;;5007757;28;20200;-68
2022/10/27 01:53:38;;;;;;;28.37;14.03;;;16.80;90.00;;;;;;5006140;28;20717;-67
2022/10/27 01:56:05;;;;;;;22.53;13.37;;;16.80;90.00;;;;;;5002683;28;20200;-68
2022/10/27 01:58:37;;;;;;;20.87;12.13;;;16.80;90.10;;;;;;5003878;28;20604;-67
2022/10/27 02:01:04;;;;;;;19.97;13.33;;;16.70;90.00;;;;;;5005928;28;20217;-67
2022/10/27 02:03:59;;;;;;;29.73;14.73;;;16.70;90.00;;;;;;5006048;28;20713;-67
2022/10/27 02:06:52;;;;;;;27.80;14.30;;;16.70;90.00;;;;;;5004545;28;20232;-67
2022/10/27 02:09:34;;;;;;;25.53;14.63;;;16.70;90.10;;;;;;5005811;28;20196;-67
2022/10/27 02:12:05;;;;;;;28.73;14.57;;;16.60;90.20;;;;;;5006502;28;20196;-67
2022/10/27 02:14:34;;;;;;;21.53;13.57;;;16.60;90.20;;;;;;5003544;28;20200;-68
2022/10/27 02:17:03;;;;;;;27.40;14.37;;;16.60;90.30;;;;;;5003754;28;20196;-67
2022/10/27 02:19:37;;;;;;;27.83;13.80;;;16.50;90.10;;;;;;5005800;28;20222;-67
2022/10/27 02:22:05;;;;;;;32.93;14.80;;;16.50;90.10;;;;;;5001851;28;20580;-67
2022/10/27 02:24:32;;;;;;;26.80;15.27;;;16.40;90.10;;;;;;5001763;28;20243;-67
2022/10/27 02:27:47;;;;;;;22.50;12.10;;;16.40;90.10;;;;;;5006496;28;20200;-68
2022/10/27 02:30:15;;;;;;;22.87;13.63;;;16.30;90.10;;;;;;5002308;28;20215;-67
2022/10/27 02:32:43;;;;;;;24.67;12.40;;;16.30;90.10;;;;;;5005111;28;20552;-67
2022/10/27 02:35:11;;;;;;;29.17;11.73;;;16.30;90.00;;;;;;5005340;28;20537;-67
2022/10/27 02:37:41;;;;;;;18.87;13.07;;;16.20;89.90;;;;;;5001212;28;20212;-68
2022/10/27 02:40:09;;;;;;;25.97;13.20;;;16.20;89.90;;;;;;5003813;28;20282;-67
2022/10/27 02:42:36;;;;;;;27.67;13.47;;;16.20;90.00;;;;;;5020270;28;20250;-68
2022/10/27 02:45:03;;;;;;;24.00;13.63;;;16.10;90.00;;;;;;5002991;28;20220;-68
2022/10/27 02:47:30;;;;;;;25.30;13.50;;;16.10;90.10;;;;;;5001250;28;20274;-67
2022/10/27 02:49:57;;;;;;;25.20;13.30;;;16.10;90.10;;;;;;5002919;28;20204;-67
2022/10/27 02:52:24;;;;;;;24.80;13.50;;;16.10;90.20;;;;;;5004379;28;20205;-67
2022/10/27 02:54:51;;;;;;;24.97;14.33;;;16.10;90.20;;;;;;5003921;28;20206;-67
2022/10/27 02:57:18;;;;;;;25.83;14.47;;;16.10;90.20;;;;;;5004944;28;20208;-67
2022/10/27 02:59:45;;;;;;;23.93;12.97;;;16.10;90.20;;;;;;5002582;28;20220;-68
2022/10/27 03:02:18;;;;;;;23.60;13.10;;;16.00;90.30;;;;;;5003912;28;20199;-67
2022/10/27 03:04:46;;;;;;;17.53;11.83;;;16.00;90.30;;;;;;5005294;28;20212;-67
2022/10/27 03:07:13;;;;;;;23.43;13.40;;;16.00;90.30;;;;;;5002729;28;20236;-67
2022/10/27 03:09:40;;;;;;;20.70;13.67;;;16.00;90.30;;;;;;5003291;28;20244;-68
2022/10/27 03:12:07;;;;;;;25.10;13.37;;;16.00;90.30;;;;;;5003978;28;20269;-68
2022/10/27 03:14:34;;;;;;;18.63;11.90;;;16.00;90.30;;;;;;5001607;28;20208;-68
2022/10/27 03:17:01;;;;;;;25.83;12.90;;;16.00;90.40;;;;;;5003303;28;20204;-67
2022/10/27 03:19:28;;;;;;;22.80;12.47;;;15.90;90.30;;;;;;5003342;28;20216;-67
2022/10/27 03:21:55;;;;;;;20.10;12.10;;;15.90;90.40;;;;;;5001667;28;20235;-67
2022/10/27 03:24:21;;;;;;;24.20;14.97;;;15.90;90.40;;;;;;5002066;28;20205;-67
2022/10/27 03:26:48;;;;;;;23.10;13.17;;;15.90;90.40;;;;;;5002661;28;20262;-67
2022/10/27 03:29:15;;;;;;;28.67;13.73;;;15.80;90.40;;;;;;5001894;28;20223;-68
2022/10/27 03:31:42;;;;;;;22.57;13.00;;;15.90;90.50;;;;;;5003481;28;20702;-68
2022/10/27 03:34:10;;;;;;;22.47;13.13;;;15.80;90.60;;;;;;5006115;28;20200;-68
2022/10/27 03:36:37;;;;;;;25.40;14.13;;;15.90;90.60;;;;;;5002844;28;20251;-68
2022/10/27 03:39:04;;;;;;;29.70;13.90;;;15.90;90.60;;;;;;5000467;28;20209;-67
2022/10/27 03:41:31;;;;;;;26.83;14.50;;;15.90;90.60;;;;;;5003478;28;20235;-67
2022/10/27 03:43:58;;;;;;;23.90;13.50;;;15.80;90.60;;;;;;5004317;28;20239;-68
2022/10/27 03:46:25;;;;;;;28.43;14.37;;;15.80;90.60;;;;;;5001111;28;20299;-67
2022/10/27 03:48:55;;;;;;;21.83;14.17;;;15.80;90.60;;;;;;5001139;28;20200;-67
2022/10/27 03:51:22;;;;;;;24.87;12.07;;;15.80;90.60;;;;;;5006603;28;20307;-67
2022/10/27 03:53:49;;;;;;;27.17;14.93;;;15.80;90.60;;;;;;5003551;28;20200;-68
2022/10/27 03:56:16;;;;;;;24.73;13.30;;;15.80;90.50;;;;;;5003079;28;20308;-68
2022/10/27 03:58:43;;;;;;;20.07;13.63;;;15.70;90.50;;;;;;4995977;28;20572;-68
2022/10/27 04:01:10;;;;;;;23.63;13.17;;;15.70;90.30;;;;;;5002377;28;20556;-68
2022/10/27 04:03:38;;;;;;;26.03;13.73;;;15.70;90.30;;;;;;4996633;28;20201;-68
2022/10/27 04:06:05;;;;;;;27.83;13.17;;;15.60;90.20;;;;;;5001866;28;20716;-68
2022/10/27 04:08:32;;;;;;;26.63;14.10;;;15.60;90.30;;;;;;5001253;28;20266;-68
2022/10/27 04:10:59;;;;;;;22.50;13.03;;;15.50;90.30;;;;;;5002882;28;20219;-68
2022/10/27 04:13:26;;;;;;;26.03;12.57;;;15.50;90.40;;;;;;5002911;28;20291;-68
2022/10/27 04:16:00;;;;;;;22.27;13.23;;;15.50;90.40;;;;;;5001392;28;20525;-68
2022/10/27 04:18:28;;;;;;;20.93;12.60;;;15.50;90.40;;;;;;5001266;28;20204;-68
2022/10/27 04:20:59;;;;;;;24.53;13.67;;;15.50;90.40;;;;;;5004239;28;20347;-68
2022/10/27 04:23:26;;;;;;;19.33;12.47;;;15.50;90.30;;;;;;5001149;28;20223;-67
2022/10/27 04:25:53;;;;;;;25.63;13.00;;;15.50;90.30;;;;;;5001750;28;20235;-67
2022/10/27 04:28:21;;;;;;;22.33;13.00;;;15.50;90.30;;;;;;5002384;28;20200;-67
2022/10/27 04:30:48;;;;;;;26.97;12.37;;;15.50;90.40;;;;;;5007396;28;20270;-67
2022/10/27 04:33:15;;;;;;;26.97;12.77;;;15.50;90.40;;;;;;5000900;28;20238;-68
2022/10/27 04:35:42;;;;;;;21.00;13.50;;;15.50;90.50;;;;;;5003348;28;20219;-68
2022/10/27 04:38:09;;;;;;;22.10;12.80;;;15.50;90.60;;;;;;5000850;28;20214;-68
2022/10/27 04:40:36;;;;;;;22.40;12.67;;;15.50;90.50;;;;;;5003585;28;20330;-68
2022/10/27 04:43:03;;;;;;;27.03;14.23;;;15.50;90.60;;;;;;5003726;28;20205;-68
2022/10/27 04:45:30;;;;;;;26.27;13.73;;;15.60;90.60;;;;;;5000970;28;20203;-68
2022/10/27 04:47:57;;;;;;;23.87;13.33;;;15.50;90.60;;;;;;5000050;28;20649;-68
2022/10/27 04:50:24;;;;;;;26.77;13.93;;;15.50;90.70;;;;;;5002479;28;20603;-68
2022/10/27 04:53:00;;;;;;;31.03;14.93;;;15.50;90.70;;;;;;5005926;28;20243;-68
2022/10/27 04:55:30;;;;;;;22.60;14.30;;;15.50;90.70;;;;;;5002095;28;20261;-68
2022/10/27 04:57:57;;;;;;;29.93;15.33;;;15.50;90.60;;;;;;5002354;28;20261;-68
2022/10/27 05:00:24;;;;;;;28.40;15.50;;;15.50;90.70;;;;;;4997868;28;20274;-68
2022/10/27 05:02:53;;;;;;;37.93;19.73;;;15.50;90.80;;;;;;5001797;28;20223;-68
2022/10/27 05:05:23;;;;;;;39.77;18.10;;;15.50;91.00;;;;;;5009459;28;20215;-68
2022/10/27 05:08:00;;;;;;;42.10;20.80;;;15.50;91.10;;;;;;5004412;28;20196;-68
2022/10/27 05:10:29;;;;;;;39.57;21.87;;;15.50;91.20;;;;;;5001672;28;20204;-68
2022/10/27 05:12:57;;;;;;;74.97;26.57;;;15.50;91.30;;;;;;5001884;28;20199;-68
2022/10/27 05:15:24;;;;;;;52.93;23.90;;;15.50;91.40;;;;;;5008348;28;20264;-68
2022/10/27 05:17:51;;;;;;;56.77;25.80;;;15.50;91.50;;;;;;5009787;28;20212;-68
2022/10/27 05:20:19;;;;;;;57.43;24.50;;;15.50;91.60;;;;;;5003301;28;20212;-68
2022/10/27 05:22:46;;;;;;;68.27;26.27;;;15.50;91.70;;;;;;5010763;28;20582;-68
2022/10/27 05:25:13;;;;;;;61.03;26.70;;;15.50;91.80;;;;;;5002999;28;20259;-68
2022/10/27 05:27:41;;;;;;;64.77;26.43;;;15.50;91.90;;;;;;5001224;28;20209;-68
2022/10/27 05:30:10;;;;;;;55.77;26.90;;;15.50;92.00;;;;;;5002112;28;20196;-68
2022/10/27 05:32:38;;;;;;;64.07;25.77;;;15.50;92.10;;;;;;4999895;28;20211;-69
2022/10/27 05:35:12;;;;;;;69.77;27.27;;;15.50;92.20;;;;;;5008109;28;20539;-69
2022/10/27 05:37:43;;;;;;;70.67;27.97;;;15.50;92.20;;;;;;5000944;28;20208;-68
2022/10/27 05:40:11;;;;;;;69.97;26.77;;;15.50;92.30;;;;;;5000630;28;20199;-68
2022/10/27 05:42:38;;;;;;;56.40;25.37;;;15.50;92.40;;;;;;5008879;28;20204;-68
2022/10/27 05:45:05;;;;;;;71.50;24.17;;;15.50;92.50;;;;;;5005232;28;20200;-68
2022/10/27 05:47:32;;;;;;;66.67;24.27;;;15.50;92.50;;;;;;5004474;28;20199;-69
2022/10/27 05:49:59;;;;;;;111.97;27.47;;;15.60;92.50;;;;;;5003978;28;20333;-68
2022/10/27 05:52:26;;;;;;;150.57;24.73;;;15.50;92.50;;;;;;5004184;28;20210;-68
2022/10/27 05:54:53;;;;;;;110.47;28.20;;;15.50;92.50;;;;;;5000231;28;20266;-68
2022/10/27 05:57:20;;;;;;;87.20;26.40;;;15.50;92.50;;;;;;5003249;28;20221;-68
2022/10/27 05:59:47;;;;;;;90.07;26.50;;;15.50;92.70;;;;;;5003188;28;20199;-69
2022/10/27 06:02:14;;;;;;;87.27;27.87;;;15.50;92.80;;;;;;5003623;28;20660;-69
2022/10/27 06:04:41;;;;;;;108.80;27.70;;;15.50;92.80;;;;;;5004414;28;20657;-69
2022/10/27 06:07:08;;;;;;;100.80;27.67;;;15.50;92.90;;;;;;5009402;28;20210;-69
2022/10/27 06:09:36;;;;;;;115.43;25.77;;;15.50;93.00;;;;;;5005173;28;20630;-69
2022/10/27 06:12:03;;;;;;;114.03;25.40;;;15.50;93.20;;;;;;5004214;28;20262;-69
2022/10/27 06:14:30;;;;;;;98.73;26.87;;;15.50;93.30;;;;;;5005884;28;20218;-69
2022/10/27 06:16:58;;;;;;;73.80;27.63;;;15.60;93.40;;;;;;5003166;28;20215;-70
2022/10/27 06:19:25;;;;;;;103.63;28.40;;;15.60;93.50;;;;;;5005865;28;20655;-69
2022/10/27 06:21:52;;;;;;;92.47;26.17;;;15.60;93.60;;;;;;5004231;28;20239;-69
2022/10/27 06:24:19;;;;;;;68.87;25.43;;;15.60;93.60;;;;;;5004313;28;20270;-69
2022/10/27 06:26:46;;;;;;;79.77;27.80;;;15.70;93.70;;;;;;5004410;28;20546;-68
2022/10/27 06:29:13;;;;;;;68.13;27.27;;;15.70;93.80;;;;;;5004058;28;20294;-68
2022/10/27 06:31:41;;;;;;;78.50;28.33;;;15.70;93.80;;;;;;5001860;28;20215;-69
2022/10/27 06:34:08;;;;;;;75.80;27.43;;;15.70;93.80;;;;;;5002378;28;20215;-68
2022/10/27 06:36:35;;;;;;;59.90;25.63;;;15.80;93.80;;;;;;5011660;28;20472;-70
2022/10/27 06:39:02;;;;;;;82.63;26.60;;;15.80;93.80;;;;;;5007114;28;20220;-70
2022/10/27 06:41:29;;;;;;;113.50;27.73;;;15.80;93.80;;;;;;5004098;28;20250;-69
2022/10/27 06:43:56;;;;;;;66.80;28.63;;;15.90;93.80;;;;;;5004208;28;20243;-69
2022/10/27 06:46:23;;;;;;;84.57;29.60;;;15.90;93.80;;;;;;5004062;28;20565;-69
2022/10/27 06:48:50;;;;;;;88.93;30.80;;;15.90;93.80;;;;;;5003467;28;20262;-69
2022/10/27 06:51:17;;;;;;;81.33;31.83;;;15.90;93.80;;;;;;5006266;28;20546;-69
2022/10/27 06:53:44;;;;;;;73.53;30.53;;;16.00;93.90;;;;;;5004194;28;20214;-71
2022/10/27 06:56:11;;;;;;;67.17;30.37;;;16.00;93.90;;;;;;5002210;28;20252;-69
2022/10/27 06:58:39;;;;;;;80.83;31.40;;;16.10;93.90;;;;;;5003896;28;20552;-70
2022/10/27 07:01:06;;;;;;;68.87;28.67;;;16.10;93.80;;;;;;5006656;28;20251;-69
2022/10/27 07:03:33;;;;;;;52.27;28.83;;;16.20;93.80;;;;;;5003610;28;20221;-69
2022/10/27 07:06:01;;;;;;;45.53;28.03;;;16.20;93.80;;;;;;5004928;28;20231;-69
2022/10/27 07:08:28;;;;;;;49.53;27.13;;;16.30;93.80;;;;;;5004363;28;20204;-69
2022/10/27 07:10:55;;;;;;;50.17;27.77;;;16.30;93.80;;;;;;5009106;28;20277;-69
2022/10/27 07:13:22;;;;;;;51.27;26.67;;;16.40;93.70;;;;;;5003712;28;20346;-69
2022/10/27 07:15:49;;;;;;;45.33;26.57;;;16.40;93.70;;;;;;5001697;28;20204;-69
2022/10/27 07:18:17;;;;;;;40.20;25.03;;;16.50;93.70;;;;;;5004028;28;20218;-69
2022/10/27 07:20:45;;;;;;;39.87;23.23;;;16.50;93.60;;;;;;5005041;28;20240;-69
2022/10/27 07:23:12;;;;;;;41.37;22.87;;;16.60;93.60;;;;;;5000904;28;20203;-69
2022/10/27 07:25:39;;;;;;;31.87;22.63;;;16.60;93.50;;;;;;5003163;28;20204;-69
2022/10/27 07:28:07;;;;;;;35.40;21.93;;;16.70;93.50;;;;;;5003807;28;20216;-69
2022/10/27 07:30:36;;;;;;;36.73;21.80;;;16.70;93.50;;;;;;5002982;28;20549;-69
2022/10/27 07:33:04;;;;;;;29.97;21.73;;;16.70;93.40;;;;;;5003527;28;20201;-70
2022/10/27 07:35:32;;;;;;;32.60;22.40;;;16.80;93.20;;;;;;5004995;28;20267;-69
2022/10/27 07:37:59;;;;;;;30.87;21.57;;;16.80;93.10;;;;;;5002812;28;20200;-69
2022/10/27 07:40:26;;;;;;;34.47;23.17;;;16.80;93.00;;;;;;4998343;28;20286;-69
2022/10/27 07:42:59;;;;;;;34.93;23.30;;;16.80;93.00;;;;;;5004941;28;20606;-69
2022/10/27 07:45:38;;;;;;;34.17;23.13;;;16.90;93.00;;;;;;5000849;28;20262;-69
2022/10/27 07:48:09;;;;;;;28.87;21.80;;;16.90;92.80;;;;;;5031761;28;20207;-69
2022/10/27 07:50:37;;;;;;;27.57;21.03;;;16.90;92.80;;;;;;5003916;28;20205;-69
2022/10/27 07:53:04;;;;;;;30.37;21.07;;;17.00;92.60;;;;;;5002941;28;20209;-69
2022/10/27 07:55:34;;;;;;;28.57;20.13;;;17.00;92.60;;;;;;5000121;28;20559;-69
2022/10/27 07:58:12;;;;;;;26.03;19.47;;;17.10;92.50;;;;;;5003396;28;20207;-69
2022/10/27 08:00:44;;;;;;;29.60;19.47;;;17.10;92.40;;;;;;5003762;28;20637;-69
2022/10/27 08:03:24;;;;;;;25.87;18.87;;;17.20;92.20;;;;;;5000868;28;20646;-69
2022/10/27 08:05:52;;;;;;;25.10;20.17;;;17.30;92.10;;;;;;5002829;28;20196;-68
2022/10/27 08:08:19;;;;;;;29.70;21.40;;;17.30;92.30;;;;;;5000249;28;20202;-68
2022/10/27 08:10:48;;;;;;;30.13;20.93;;;17.40;91.90;;;;;;5000171;28;20592;-69
2022/10/27 08:13:16;;;;;;;40.13;24.73;;;17.40;91.80;;;;;;5001397;28;20269;-69
2022/10/27 08:15:43;;;;;;;35.20;24.60;;;17.50;91.70;;;;;;5003582;28;20198;-69
2022/10/27 08:18:11;;;;;;;37.43;23.40;;;17.60;91.50;;;;;;5001477;28;20196;-69
2022/10/27 08:20:44;;;;;;;35.23;23.67;;;17.60;91.50;;;;;;5003545;28;20314;-69
2022/10/27 08:23:19;;;;;;;34.13;25.33;;;17.70;91.50;;;;;;5003124;28;20202;-68
2022/10/27 08:25:46;;;;;;;39.30;25.33;;;17.70;91.40;;;;;;5002526;28;20192;-68
2022/10/27 08:28:14;;;;;;;36.20;24.67;;;17.80;91.40;;;;;;5002390;28;20641;-68
2022/10/27 08:30:41;;;;;;;37.13;25.07;;;17.90;91.30;;;;;;5001756;28;20201;-71
2022/10/27 08:33:22;;;;;;;37.73;24.50;;;18.00;91.20;;;;;;4999383;28;20208;-68
2022/10/27 08:35:50;;;;;;;39.13;25.83;;;18.10;91.10;;;;;;5011184;28;20630;-68
2022/10/27 08:38:18;;;;;;;32.63;24.47;;;18.10;91.00;;;;;;5000983;28;20210;-67
2022/10/27 08:41:11;;;;;;;33.63;23.97;;;18.20;90.90;;;;;;5008775;28;20227;-69
2022/10/27 08:43:58;;;;;;;31.13;22.80;;;18.30;90.90;;;;;;5000610;28;20204;-69
2022/10/27 08:46:30;;;;;;;31.43;22.83;;;18.40;90.70;;;;;;4999607;28;20198;-67
2022/10/27 08:49:02;;;;;;;35.17;24.33;;;18.60;90.60;;;;;;5000939;28;20291;-68
2022/10/27 08:51:31;;;;;;;34.63;24.63;;;18.70;90.40;;;;;;5004332;28;20198;-70
2022/10/27 08:53:59;;;;;;;35.27;25.03;;;18.70;90.10;;;;;;4998482;28;20213;-68
2022/10/27 08:56:33;;;;;;;41.83;26.10;;;18.80;90.00;;;;;;5001474;28;20203;-70
2022/10/27 08:59:02;;;;;;;43.17;29.17;;;18.90;89.80;;;;;;5003535;28;20201;-67
2022/10/27 09:01:41;;;;;;;45.03;29.23;;;19.00;89.50;;;;;;5002653;28;20321;-67
2022/10/27 09:04:17;;;;;;;37.83;26.97;;;19.10;89.20;;;;;;5009331;28;20612;-69
2022/10/27 09:07:03;;;;;;;36.00;26.67;;;19.20;89.00;;;;;;5003012;28;20203;-67
2022/10/27 09:09:51;;;;;;;41.17;26.73;;;19.40;88.70;;;;;;5000433;28;20198;-67
2022/10/27 09:12:35;;;;;;;40.37;26.90;;;19.50;88.50;;;;;;4997719;28;20198;-70
2022/10/27 09:15:36;;;;;;;40.67;26.57;;;19.60;87.90;;;;;;5002626;28;20227;-67
2022/10/27 09:18:22;;;;;;;40.97;26.87;;;19.70;87.40;;;;;;5004754;28;20199;-69
2022/10/27 09:20:57;;;;;;;41.40;26.83;;;19.80;87.20;;;;;;5007576;28;20269;-67
2022/10/27 09:23:38;;;;;;;34.63;26.77;;;20.00;87.00;;;;;;5007866;28;20209;-66
2022/10/27 09:26:06;;;;;;;37.73;26.90;;;20.10;86.60;;;;;;5002040;28;20266;-68
2022/10/27 09:28:51;;;;;;;35.00;26.17;;;20.20;86.00;;;;;;5002499;28;20199;-65
2022/10/27 09:31:23;;;;;;;42.30;26.97;;;20.30;85.70;;;;;;5007988;28;20210;-69
2022/10/27 09:33:56;;;;;;;39.17;27.90;;;20.40;85.30;;;;;;5005565;28;20699;-67
2022/10/27 09:36:23;;;;;;;37.57;27.40;;;20.50;85.10;;;;;;5005573;28;20209;-69
2022/10/27 09:38:50;;;;;;;38.90;27.20;;;20.60;84.80;;;;;;5007613;28;20227;-69
2022/10/27 09:41:17;;;;;;;36.93;27.00;;;20.70;84.80;;;;;;5006191;28;20273;-68
2022/10/27 09:43:45;;;;;;;36.57;27.00;;;20.80;84.50;;;;;;5003265;28;20258;-67
2022/10/27 09:46:22;;;;;;;37.43;26.77;;;20.80;84.30;;;;;;5004207;28;20203;-67
2022/10/27 09:48:54;;;;;;;44.93;27.60;;;21.00;84.20;;;;;;5003891;28;20192;-67
2022/10/27 09:51:34;;;;;;;42.40;28.63;;;21.10;84.00;;;;;;5007821;28;20203;-67
2022/10/27 09:54:02;;;;;;;39.90;26.83;;;21.20;83.10;;;;;;5005853;28;20212;-67
2022/10/27 09:56:35;;;;;;;35.87;27.87;;;21.30;83.00;;;;;;5005127;28;20215;-67
2022/10/27 09:59:05;;;;;;;40.93;28.30;;;21.40;82.40;;;;;;5006780;28;20207;-67
2022/10/27 10:01:38;;;;;;;39.40;28.97;;;21.50;81.90;;;;;;5002468;28;20229;-66
2022/10/27 10:04:16;;;;;;;40.60;28.03;;;21.60;81.50;;;;;;5001690;28;20200;-67
2022/10/27 10:06:55;;;;;;;43.77;29.53;;;21.70;81.40;;;;;;5003565;28;20193;-67
2022/10/27 10:09:28;;;;;;;39.17;28.93;;;21.80;80.90;;;;;;5003889;28;20253;-67
2022/10/27 10:12:13;;;;;;;35.33;27.40;;;21.90;80.80;;;;;;5005700;28;20207;-67
2022/10/27 10:14:46;;;;;;;38.30;28.70;;;21.90;80.20;;;;;;5003108;28;20211;-67
2022/10/27 10:17:25;;;;;;;38.20;29.37;;;21.90;80.20;;;;;;5035571;28;20216;-68
2022/10/27 10:19:55;;;;;;;45.80;28.93;;;21.90;80.40;;;;;;5004064;28;20277;-64
2022/10/27 10:22:29;;;;;;;35.57;29.17;;;22.00;80.40;;;;;;5006065;28;20243;-65
2022/10/27 10:25:06;;;;;;;40.27;28.10;;;22.00;80.50;;;;;;5003331;28;20196;-67
2022/10/27 10:27:34;;;;;;;47.53;30.97;;;22.20;80.60;;;;;;5000741;28;20708;-66
2022/10/27 10:30:04;;;;;;;45.43;30.90;;;22.30;80.30;;;;;;5003536;28;20207;-67
2022/10/27 10:32:36;;;;;;;46.47;30.50;;;22.50;79.60;;;;;;5006227;28;20319;-66
2022/10/27 10:35:41;;;;;;;43.87;31.50;;;22.60;78.90;;;;;;5003983;28;20271;-65
2022/10/27 10:38:24;;;;;;;42.90;28.17;;;22.70;78.70;;;;;;5005236;28;20637;-65
2022/10/27 10:41:03;;;;;;;42.53;29.23;;;22.90;78.50;;;;;;5002696;28;20551;-67
2022/10/27 10:43:30;;;;;;;46.60;30.30;;;23.00;78.00;;;;;;5005412;28;20220;-68
2022/10/27 10:45:58;;;;;;;48.87;29.67;;;23.10;77.30;;;;;;5005573;28;20279;-66
2022/10/27 10:48:27;;;;;;;41.07;29.23;;;23.10;76.70;;;;;;5004618;28;20200;-69
2022/10/27 10:50:55;;;;;;;43.20;29.50;;;23.10;76.50;;;;;;5004438;28;20664;-64
2022/10/27 10:53:30;;;;;;;40.80;29.27;;;23.00;77.10;;;;;;5003992;28;20235;-67
2022/10/27 10:56:01;;;;;;;53.03;31.77;;;23.00;77.40;;;;;;5004218;28;20211;-66
2022/10/27 10:58:31;;;;;;;47.83;30.40;;;23.10;77.50;;;;;;5005227;28;20210;-67
2022/10/27 11:01:01;;;;;;;46.90;32.13;;;23.20;76.90;;;;;;5004630;28;20279;-67
2022/10/27 11:03:35;;;;;;;49.50;31.07;;;23.30;76.40;;;;;;5001992;28;20247;-65
2022/10/27 11:06:04;;;;;;;44.60;30.07;;;23.30;76.60;;;;;;5002234;28;20208;-64
2022/10/27 11:08:41;;;;;;;40.57;29.13;;;23.40;76.40;;;;;;5004924;28;20540;-64
2022/10/27 11:11:18;;;;;;;47.67;29.53;;;23.40;76.40;;;;;;5002766;28;20306;-64
2022/10/27 11:13:55;;;;;;;43.63;29.50;;;23.40;75.70;;;;;;5006459;28;20203;-66
2022/10/27 11:16:23;;;;;;;42.43;28.27;;;23.50;76.00;;;;;;5003294;28;20211;-65
2022/10/27 11:19:04;;;;;;;47.97;29.00;;;23.50;76.20;;;;;;5009138;28;20545;-66
2022/10/27 11:21:49;;;;;;;42.80;28.27;;;23.60;76.10;;;;;;5023602;28;20247;-66
2022/10/27 11:24:40;;;;;;;45.17;30.07;;;23.70;76.00;;;;;;5003838;28;20197;-66
2022/10/27 11:27:14;;;;;;;41.97;27.67;;;23.80;75.40;;;;;;5000048;28;20642;-66
2022/10/27 11:29:50;;;;;;;41.40;27.97;;;23.90;75.20;;;;;;5011114;28;20575;-66
2022/10/27 11:32:32;;;;;;;45.67;28.83;;;23.80;75.00;;;;;;5006736;28;20279;-69
2022/10/27 11:35:16;;;;;;;38.63;26.93;;;23.90;75.40;;;;;;5011702;28;20275;-66
2022/10/27 11:37:54;;;;;;;48.57;28.50;;;23.90;75.10;;;;;;5004896;28;20278;-68
2022/10/27 11:41:01;;;;;;;49.43;29.57;;;23.90;74.80;;;;;;5002570;28;20208;-64
2022/10/27 11:43:53;;;;;;;48.97;29.70;;;23.90;74.20;;;;;;5003987;28;20219;-66
2022/10/27 11:46:34;;;;;;;45.70;28.93;;;24.00;74.70;;;;;;5003145;28;20211;-67
2022/10/27 11:49:09;;;;;;;47.47;29.60;;;24.10;74.50;;;;;;5002269;28;20519;-63
2022/10/27 11:52:02;;;;;;;48.43;31.23;;;24.10;73.90;;;;;;5004545;28;20196;-66
2022/10/27 11:54:30;;;;;;;52.33;30.63;;;24.20;73.60;;;;;;5004221;28;20192;-67
2022/10/27 11:57:32;;;;;;;49.67;32.80;;;24.20;73.70;;;;;;5002978;28;20631;-65
2022/10/27 12:00:14;;;;;;;57.47;34.97;;;24.20;73.90;;;;;;5002221;28;20257;-65
2022/10/27 12:02:59;;;;;;;59.83;34.77;;;24.30;73.40;;;;;;5002251;28;20592;-66
2022/10/27 12:05:45;;;;;;;54.30;35.83;;;24.20;73.30;;;;;;5003639;28;20279;-65
2022/10/27 12:08:21;;;;;;;55.17;34.63;;;24.20;73.50;;;;;;5003132;28;20197;-65
2022/10/27 12:11:16;;;;;;;57.63;35.17;;;24.10;73.80;;;;;;4998969;28;20207;-65
2022/10/27 12:14:15;;;;;;;59.77;36.13;;;24.10;73.70;;;;;;5003823;28;20200;-65
2022/10/27 12:17:04;;;;;;;53.10;33.53;;;24.10;73.90;;;;;;5032104;28;20205;-66
2022/10/27 12:19:44;;;;;;;57.07;36.40;;;24.20;73.50;;;;;;4999710;28;20550;-65
2022/10/27 12:22:42;;;;;;;51.60;35.20;;;24.30;73.30;;;;;;5000650;28;20235;-66
2022/10/27 12:25:24;;;;;;;50.93;32.90;;;24.30;73.00;;;;;;5004645;28;20625;-65
2022/10/27 12:27:56;;;;;;;59.13;35.43;;;24.30;73.10;;;;;;5002610;28;20203;-65
2022/10/27 12:30:25;;;;;;;48.10;31.87;;;24.40;73.40;;;;;;5002858;28;20212;-65
2022/10/27 12:32:52;;;;;;;51.53;35.03;;;24.40;72.90;;;;;;5000880;28;20211;-66
2022/10/27 12:35:44;;;;;;;51.00;33.70;;;24.40;72.70;;;;;;5001915;28;20234;-66
2022/10/27 12:38:31;;;;;;;49.63;32.87;;;24.40;72.50;;;;;;5003589;28;20684;-65
2022/10/27 12:41:19;;;;;;;54.50;31.77;;;24.40;72.60;;;;;;5001781;28;20208;-65
2022/10/27 12:44:01;;;;;;;47.67;32.03;;;24.30;72.70;;;;;;5002875;28;20216;-65
2022/10/27 12:46:40;;;;;;;58.67;32.87;;;24.30;73.10;;;;;;5001644;28;20201;-65
2022/10/27 12:49:39;;;;;;;51.70;31.97;;;24.20;73.30;;;;;;5003940;28;20201;-65
2022/10/27 12:52:20;;;;;;;53.17;33.77;;;24.20;73.40;;;;;;5003732;28;20196;-66